Alamogordo, New Mexico
Current Conditions -  °F | °C
As of 12:58 AM on Friday 31 Oct 2014 (Local Time) from KHMN Reporting Station
Clear Clear  
Wind Chill: 52°   Ceiling: Unl
Heat Index: 52°   Visibility: 10mi
Dew Point: 33°   Wind: 5mph
Humidity: 48%   Direction: 260°W
Pressure: 30.25"   Gusts: NA
Location:  32.9°N, 105.96°W
Report Text: KHMN 310658Z AUTO 26004KT 10SM CLR 11/00 A3025 RMK AO2 SLP193 T01110004 402660051 $
Loading
Personal Weather Stations






























Interactive Weather Map
Tropical Storm Tracking
New forecast layout! Learn more

10-Day Weather Forecast

Advertisements
Track Severe Weather on mobile